createdAt,value
2019-02-04T00:01:33.182Z,2.50
2019-02-04T00:04:01.240Z,2.70
2019-02-04T00:06:29.309Z,2.40
2019-02-04T00:08:57.454Z,2.60
2019-02-04T00:11:25.493Z,2.30
2019-02-04T00:13:54.155Z,2.90
2019-02-04T00:16:22.125Z,2.50
2019-02-04T00:18:50.507Z,2.60
2019-02-04T00:21:18.925Z,2.40
2019-02-04T00:23:47.093Z,2.40
2019-02-04T00:26:15.348Z,2.10
2019-02-04T00:28:43.616Z,2.10
2019-02-04T00:31:12.099Z,1.90
2019-02-04T00:33:40.459Z,2.50
2019-02-04T00:36:08.435Z,2.40
2019-02-04T00:38:37.064Z,2.00
2019-02-04T00:41:05.716Z,2.20
2019-02-04T00:43:33.893Z,2.50
2019-02-04T00:46:02.107Z,2.10
2019-02-04T00:48:30.874Z,2.20
2019-02-04T00:50:58.927Z,2.20
2019-02-04T00:53:26.942Z,2.10
2019-02-04T00:55:55.010Z,2.20
2019-02-04T00:58:23.286Z,2.20
2019-02-04T01:00:51.293Z,2.20
2019-02-04T01:03:19.564Z,1.80
2019-02-04T01:05:47.755Z,2.00
2019-02-04T01:08:15.698Z,2.20
2019-02-04T01:10:43.665Z,2.20
2019-02-04T01:13:11.973Z,2.30
2019-02-04T01:15:39.989Z,2.30
2019-02-04T01:18:10.811Z,1.80
2019-02-04T01:20:39.001Z,2.30
2019-02-04T01:23:08.390Z,2.40
2019-02-04T01:25:36.403Z,2.30
2019-02-04T01:28:04.542Z,1.90
2019-02-04T01:30:32.512Z,2.40
2019-02-04T01:33:00.474Z,1.90
2019-02-04T01:35:31.334Z,2.20
2019-02-04T01:38:01.333Z,2.20
2019-02-04T01:40:30.134Z,2.40
2019-02-04T01:42:58.369Z,2.20
2019-02-04T01:45:26.303Z,2.20
2019-02-04T01:47:54.580Z,2.30
2019-02-04T01:50:23.705Z,2.20
2019-02-04T01:52:51.773Z,2.20
2019-02-04T01:55:19.727Z,2.20
2019-02-04T01:57:55.577Z,1.90
2019-02-04T02:00:49.165Z,2.30
2019-02-04T02:03:17.285Z,2.30
2019-02-04T02:05:45.366Z,2.50
2019-02-04T02:08:14.467Z,2.30
2019-02-04T02:10:42.489Z,2.30
2019-02-04T02:13:10.802Z,2.30
2019-02-04T02:15:38.849Z,2.30
2019-02-04T02:18:09.848Z,2.30
2019-02-04T02:20:38.181Z,1.80
2019-02-04T02:23:06.206Z,2.20
2019-02-04T02:25:34.465Z,2.30
2019-02-04T02:28:02.880Z,2.50
2019-02-04T02:30:31.757Z,2.30
2019-02-04T02:32:59.734Z,1.90
2019-02-04T02:35:27.749Z,2.30
2019-02-04T02:37:55.711Z,2.20
2019-02-04T02:40:29.811Z,1.90
2019-02-04T02:42:58.189Z,2.20
2019-02-04T02:45:27.229Z,1.80
2019-02-04T02:47:55.318Z,2.10
2019-02-04T02:50:23.568Z,2.10
2019-02-04T02:52:51.714Z,1.70
2019-02-04T02:55:20.003Z,1.60
2019-02-04T02:57:47.958Z,2.10
2019-02-04T03:00:19.118Z,1.60
2019-02-04T03:02:47.336Z,2.00
2019-02-04T03:05:15.490Z,2.30
2019-02-04T03:07:43.511Z,1.60
2019-02-04T03:10:17.773Z,2.30
2019-02-04T03:12:46.178Z,1.90
2019-02-04T03:17:51.535Z,2.30
2019-02-04T03:20:12.149Z,2.20
2019-02-04T03:22:40.243Z,2.10
2019-02-04T03:25:09.198Z,2.00
2019-02-04T03:27:37.863Z,1.90
2019-02-04T03:30:11.730Z,1.90
2019-02-04T03:32:39.966Z,2.30
2019-02-04T03:35:08.071Z,1.70
2019-02-04T03:37:36.107Z,1.70
2019-02-04T03:40:05.639Z,1.70
2019-02-04T03:42:33.993Z,1.90
2019-02-04T03:45:02.005Z,1.90
2019-02-04T03:47:30.031Z,1.50
2019-02-04T03:49:58.259Z,1.40
2019-02-04T03:52:26.456Z,1.40
2019-02-04T03:54:54.529Z,1.40
2019-02-04T03:57:24.534Z,1.10
2019-02-04T04:02:20.393Z,1.20
2019-02-04T04:04:48.504Z,1.20
2019-02-04T04:07:16.460Z,1.00
2019-02-04T04:09:44.655Z,1.20
2019-02-04T04:14:41.621Z,1.10
2019-02-04T04:17:09.842Z,1.20
2019-02-04T04:19:37.814Z,1.30
2019-02-04T04:22:05.792Z,1.10
2019-02-04T04:27:02.345Z,1.00
2019-02-04T04:29:30.622Z,1.00
2019-02-04T04:31:58.626Z,1.00
2019-02-04T04:34:26.959Z,0.90
2019-02-04T04:36:54.923Z,0.90
2019-02-04T04:39:22.887Z,1.00
2019-02-04T04:41:50.905Z,0.90
2019-02-04T04:44:18.940Z,0.90
2019-02-04T04:46:46.894Z,0.50
2019-02-04T04:49:15.182Z,1.00
2019-02-04T04:51:43.127Z,1.00
2019-02-04T04:56:39.041Z,0.90
2019-02-04T04:59:07.046Z,0.90
2019-02-04T05:01:35.303Z,1.00
2019-02-04T05:04:03.419Z,0.90
2019-02-04T05:06:32.499Z,0.60
2019-02-04T05:09:00.763Z,0.90
2019-02-04T05:11:29.072Z,0.60
2019-02-04T05:13:57.059Z,1.10
2019-02-04T05:16:25.212Z,1.30
2019-02-04T05:18:53.280Z,1.10
2019-02-04T05:21:21.532Z,1.10
2019-02-04T05:23:49.520Z,0.50
2019-02-04T05:26:17.893Z,0.70
2019-02-04T05:28:45.847Z,0.70
2019-02-04T05:31:13.793Z,0.80
2019-02-04T05:33:41.780Z,0.80
2019-02-04T05:36:10.031Z,0.80
2019-02-04T05:38:38.134Z,0.70
2019-02-04T05:41:06.388Z,0.70
2019-02-04T05:43:34.401Z,0.70
2019-02-04T05:46:02.997Z,0.50
2019-02-04T05:48:31.302Z,0.50
2019-02-04T05:50:59.312Z,0.10
2019-02-04T05:53:27.680Z,0.50
2019-02-04T05:55:55.677Z,0.80
2019-02-04T06:00:52.032Z,0.60
2019-02-04T06:03:20.187Z,0.60
2019-02-04T06:05:48.543Z,0.50
2019-02-04T06:08:16.542Z,0.70
2019-02-04T06:10:44.617Z,0.60
2019-02-04T06:13:12.739Z,0.60
2019-02-04T06:15:40.700Z,1.10
2019-02-04T06:18:08.742Z,1.00
2019-02-04T06:20:37.323Z,1.00
2019-02-04T06:23:05.293Z,0.80
2019-02-04T06:25:33.262Z,1.00
2019-02-04T06:28:01.274Z,0.80
2019-02-04T06:30:29.306Z,0.90
2019-02-04T06:32:57.616Z,0.10
2019-02-04T06:35:26.043Z,0.50
2019-02-04T06:37:54.061Z,0.60
2019-02-04T06:40:22.120Z,0.50
2019-02-04T06:45:18.499Z,0.50
2019-02-04T06:47:46.519Z,0.70
2019-02-04T06:50:15.709Z,0.10
2019-02-04T06:52:43.905Z,0.40
2019-02-04T06:55:21.996Z,0.40
2019-02-04T06:57:50.229Z,1.20
2019-02-04T07:00:18.462Z,0.40
2019-02-04T07:02:46.483Z,0.40
2019-02-04T07:05:15.056Z,0.40
2019-02-04T07:07:43.276Z,0.50
2019-02-04T07:10:14.829Z,0.00
2019-02-04T07:12:42.894Z,0.10
2019-02-04T07:15:11.382Z,0.60
2019-02-04T07:17:39.894Z,0.70
2019-02-04T07:20:14.405Z,0.70
2019-02-04T07:22:42.440Z,0.50
2019-02-04T07:25:11.189Z,0.90
2019-02-04T07:27:39.199Z,0.80
2019-02-04T07:30:11.262Z,0.70
2019-02-04T07:32:39.316Z,0.30
2019-02-04T07:35:08.775Z,0.90
2019-02-04T07:37:37.779Z,0.40
2019-02-04T07:40:13.983Z,0.70
2019-02-04T07:42:42.024Z,0.60
2019-02-04T07:45:10.289Z,0.70
2019-02-04T07:47:38.420Z,0.60
2019-02-04T07:50:07.355Z,1.30
2019-02-04T07:52:35.391Z,0.80
2019-02-04T07:55:03.463Z,0.60
2019-02-04T07:57:31.577Z,1.00
2019-02-04T08:02:27.702Z,1.10
2019-02-04T08:04:55.710Z,1.10
2019-02-04T08:07:23.809Z,1.50
2019-02-04T08:09:51.776Z,1.50
2019-02-04T08:12:19.967Z,1.20
2019-02-04T08:14:47.896Z,1.40
2019-02-04T08:17:16.113Z,1.60
2019-02-04T08:19:47.027Z,1.80
2019-02-04T08:22:14.389Z,2.00
2019-02-04T08:24:42.349Z,2.10
2019-02-04T08:27:10.387Z,2.10
2019-02-04T08:29:39.409Z,2.10
2019-02-04T08:32:07.730Z,1.50
2019-02-04T08:34:35.660Z,2.10
2019-02-04T08:37:04.112Z,2.50
2019-02-04T08:39:32.085Z,2.40
2019-02-04T08:42:00.131Z,2.30
2019-02-04T08:44:28.081Z,2.90
2019-02-04T08:46:56.053Z,2.10
2019-02-04T08:49:25.948Z,2.30
2019-02-04T08:51:55.150Z,2.70
2019-02-04T08:54:23.796Z,2.30
2019-02-04T08:56:52.051Z,2.20
2019-02-04T08:59:20.218Z,2.70
2019-02-04T09:01:48.493Z,2.90
2019-02-04T09:04:16.631Z,3.10
2019-02-04T09:06:46.277Z,3.10
2019-02-04T09:09:14.325Z,3.20
2019-02-04T09:11:42.811Z,3.60
2019-02-04T09:14:11.007Z,3.60
2019-02-04T09:16:39.037Z,3.50
2019-02-04T09:19:07.159Z,3.80
2019-02-04T09:21:35.456Z,3.80
2019-02-04T09:24:03.444Z,3.70
2019-02-04T09:26:32.688Z,3.80
2019-02-04T09:29:01.253Z,3.80
2019-02-04T09:31:29.344Z,4.20
2019-02-04T09:33:57.382Z,4.20
2019-02-04T09:36:25.383Z,4.20
2019-02-04T09:38:53.400Z,4.20
2019-02-04T09:41:21.351Z,3.90
2019-02-04T09:43:49.349Z,4.10
2019-02-04T09:46:17.616Z,4.30
2019-02-04T09:48:47.979Z,4.30
2019-02-04T09:51:16.395Z,4.30
2019-02-04T09:53:44.416Z,4.30
2019-02-04T09:56:12.510Z,4.40
2019-02-04T09:58:40.547Z,4.60
2019-02-04T10:01:09.016Z,4.70
2019-02-04T10:03:37.117Z,4.70
2019-02-04T10:06:05.421Z,4.50
2019-02-04T10:08:33.691Z,4.80
2019-02-04T10:11:01.891Z,5.00
2019-02-04T10:13:31.341Z,4.90
2019-02-04T10:16:00.011Z,4.70
2019-02-04T10:18:29.219Z,4.90
2019-02-04T10:20:59.105Z,5.00
2019-02-04T10:23:28.202Z,5.10
2019-02-04T10:25:56.587Z,5.20
2019-02-04T10:28:25.040Z,5.20
2019-02-04T10:30:53.140Z,5.30
2019-02-04T10:33:21.353Z,5.30
2019-02-04T10:35:49.415Z,5.30
2019-02-04T10:38:17.600Z,5.40
2019-02-04T10:40:45.677Z,5.80
2019-02-04T10:43:13.827Z,5.10
2019-02-04T10:45:43.178Z,5.30
2019-02-04T10:48:11.688Z,5.60
2019-02-04T10:50:46.330Z,5.60
2019-02-04T10:53:11.000Z,5.40
2019-02-04T10:55:39.722Z,5.50
2019-02-04T10:58:09.991Z,5.90
2019-02-04T11:00:38.414Z,5.70
2019-02-04T11:03:07.024Z,5.80
2019-02-04T11:05:35.675Z,5.90
2019-02-04T11:08:04.298Z,5.70
2019-02-04T11:10:33.506Z,5.60
2019-02-04T11:13:02.624Z,5.60
2019-02-04T11:15:31.142Z,5.20
2019-02-04T11:17:59.673Z,5.70
2019-02-04T11:20:29.840Z,5.80
2019-02-04T11:22:57.965Z,6.00
2019-02-04T11:25:25.944Z,6.10
2019-02-04T11:27:54.125Z,6.10
2019-02-04T11:30:28.610Z,6.30
2019-02-04T11:32:56.984Z,6.40
2019-02-04T11:35:25.294Z,6.30
2019-02-04T11:37:53.405Z,6.40
2019-02-04T11:40:25.983Z,6.80
2019-02-04T11:42:54.004Z,6.40
2019-02-04T11:45:22.684Z,6.40
2019-02-04T11:47:50.912Z,6.40
2019-02-04T11:50:19.437Z,6.30
2019-02-04T11:52:47.569Z,6.40
2019-02-04T11:55:15.596Z,6.40
2019-02-04T11:57:43.607Z,6.50
2019-02-04T12:00:16.436Z,6.60
2019-02-04T12:02:45.209Z,6.70
2019-02-04T12:05:15.548Z,6.70
2019-02-04T12:07:43.617Z,6.80
2019-02-04T12:10:16.390Z,7.00
2019-02-04T12:12:44.580Z,7.20
2019-02-04T12:15:14.705Z,7.40
2019-02-04T12:17:43.989Z,7.40
2019-02-04T12:20:13.758Z,7.30
2019-02-04T12:22:42.017Z,7.20
2019-02-04T12:25:11.881Z,7.30
2019-02-04T12:27:39.955Z,7.40
2019-02-04T12:30:19.421Z,7.40
2019-02-04T12:32:47.631Z,7.10
2019-02-04T12:35:15.655Z,7.00
2019-02-04T12:37:44.105Z,6.70
2019-02-04T12:40:13.663Z,6.50
2019-02-04T12:42:41.954Z,6.40
2019-02-04T12:45:15.540Z,6.30
2019-02-04T12:47:43.893Z,6.70
2019-02-04T12:50:13.604Z,6.50
2019-02-04T12:52:42.598Z,6.50
2019-02-04T12:55:14.107Z,6.70
2019-02-04T12:57:42.046Z,7.00
2019-02-04T13:00:14.446Z,7.20
2019-02-04T13:02:42.668Z,7.40
2019-02-04T13:05:15.503Z,7.40
2019-02-04T13:07:43.612Z,7.20
2019-02-04T13:10:13.250Z,7.10
2019-02-04T13:12:41.579Z,6.90
2019-02-04T13:15:12.498Z,7.10
2019-02-04T13:17:40.683Z,7.10
2019-02-04T13:20:09.949Z,7.20
2019-02-04T13:22:38.015Z,7.10
2019-02-04T13:25:07.604Z,7.50
2019-02-04T13:27:35.996Z,7.40
2019-02-04T13:30:06.917Z,7.40
2019-02-04T13:32:34.955Z,7.70
2019-02-04T13:35:03.757Z,7.80
2019-02-04T13:37:31.754Z,7.90
2019-02-04T13:39:59.831Z,8.30
2019-02-04T13:42:28.280Z,8.60
2019-02-04T13:44:56.547Z,8.60
2019-02-04T13:47:24.587Z,8.90
2019-02-04T13:49:52.652Z,9.80
2019-02-04T13:52:20.746Z,9.90
2019-02-04T13:54:49.150Z,10.40
2019-02-04T13:57:17.517Z,11.00
2019-02-04T13:59:45.769Z,11.40
2019-02-04T14:02:13.988Z,11.80
2019-02-04T14:04:41.949Z,12.30
2019-02-04T14:07:09.949Z,12.60
2019-02-04T14:09:38.048Z,13.00
2019-02-04T14:12:06.189Z,13.20
2019-02-04T14:14:34.599Z,13.30
2019-02-04T14:17:02.684Z,13.20
2019-02-04T14:19:30.641Z,13.60
2019-02-04T14:22:09.009Z,13.90
2019-02-04T14:24:29.220Z,13.50
2019-02-04T14:26:57.285Z,14.10
2019-02-04T14:29:26.673Z,14.40
2019-02-04T14:31:54.661Z,14.00
2019-02-04T14:34:22.658Z,14.60
2019-02-04T14:36:50.779Z,13.90
2019-02-04T14:39:18.793Z,14.10
2019-02-04T14:41:46.792Z,13.60
2019-02-04T14:44:49.667Z,13.00
2019-02-04T14:47:44.059Z,12.80
2019-02-04T14:50:50.497Z,12.90
2019-02-04T14:54:17.198Z,13.40
2019-02-04T14:57:42.357Z,13.50
2019-02-04T15:01:01.461Z,13.00
2019-02-04T15:04:35.031Z,12.70
2019-02-04T15:07:40.167Z,12.50
2019-02-04T15:10:55.661Z,12.20
2019-02-04T15:13:51.353Z,11.50
2019-02-04T15:16:35.227Z,11.90
2019-02-04T15:20:13.551Z,11.30
2019-02-04T15:23:33.058Z,11.10
2019-02-04T15:27:01.848Z,10.40
2019-02-04T15:29:51.046Z,10.00
2019-02-04T15:33:02.525Z,8.90
2019-02-04T15:36:46.404Z,8.40
2019-02-04T15:39:49.171Z,8.00
2019-02-04T15:43:34.703Z,7.60
2019-02-04T15:46:45.777Z,7.30
2019-02-04T15:50:32.560Z,6.70
2019-02-04T15:53:00.661Z,6.50
2019-02-04T15:55:28.655Z,6.10
2019-02-04T15:57:56.891Z,5.90
2019-02-04T16:00:25.109Z,5.50
2019-02-04T16:02:53.115Z,6.00
2019-02-04T16:05:21.843Z,5.40
2019-02-04T16:07:50.086Z,5.30
2019-02-04T16:10:18.109Z,5.20
2019-02-04T16:12:47.825Z,5.00
2019-02-04T16:15:16.124Z,5.00
2019-02-04T16:17:44.216Z,5.10
2019-02-04T16:20:19.963Z,5.00
2019-02-04T16:22:58.062Z,4.80
2019-02-04T16:25:17.811Z,4.20
2019-02-04T16:27:46.358Z,4.40
2019-02-04T16:30:17.695Z,4.40
2019-02-04T16:32:45.683Z,4.60
2019-02-04T16:35:15.827Z,4.50
2019-02-04T16:37:43.926Z,4.40
2019-02-04T16:40:15.117Z,4.30
2019-02-04T16:42:43.466Z,4.10
2019-02-04T16:45:11.786Z,4.20
2019-02-04T16:47:40.163Z,4.00
2019-02-04T16:50:16.287Z,4.10
2019-02-04T16:52:44.343Z,3.90
2019-02-04T16:55:12.460Z,4.00
2019-02-04T16:57:41.743Z,4.40
2019-02-04T17:00:13.922Z,3.80
2019-02-04T17:02:42.141Z,3.80
2019-02-04T17:05:11.997Z,3.40
2019-02-04T17:07:40.054Z,3.60
2019-02-04T17:10:12.351Z,3.60
2019-02-04T17:12:40.579Z,3.60
2019-02-04T17:15:08.729Z,3.60
2019-02-04T17:17:36.706Z,3.40
2019-02-04T17:20:09.919Z,3.40
2019-02-04T17:22:38.395Z,3.40
2019-02-04T17:25:06.680Z,3.20
2019-02-04T17:27:34.723Z,3.20
2019-02-04T17:30:03.013Z,3.30
2019-02-04T17:32:31.086Z,3.10
2019-02-04T17:34:59.309Z,3.30
2019-02-04T17:37:27.335Z,3.30
2019-02-04T17:39:55.434Z,3.10
2019-02-04T17:42:23.657Z,2.90
2019-02-04T17:44:51.711Z,3.00
2019-02-04T17:47:19.799Z,3.10
2019-02-04T17:49:48.247Z,2.90
2019-02-04T17:52:16.297Z,2.80
2019-02-04T17:54:44.462Z,2.60
2019-02-04T17:57:12.696Z,2.70
2019-02-04T17:59:40.757Z,2.70
2019-02-04T18:02:11.873Z,2.70
2019-02-04T18:04:38.768Z,2.50
2019-02-04T18:07:07.126Z,2.30
2019-02-04T18:09:35.181Z,2.60
2019-02-04T18:12:03.346Z,2.50
2019-02-04T18:14:31.427Z,2.50
2019-02-04T18:16:59.703Z,2.70
2019-02-04T18:19:27.826Z,2.50
2019-02-04T18:21:56.433Z,2.70
2019-02-04T18:24:24.633Z,2.40
2019-02-04T18:26:52.675Z,2.20
2019-02-04T18:29:21.122Z,2.40
2019-02-04T18:31:49.144Z,2.00
2019-02-04T18:34:17.406Z,2.40
2019-02-04T18:36:47.129Z,2.00
2019-02-04T18:39:15.648Z,2.40
2019-02-04T18:41:43.637Z,2.40
2019-02-04T18:44:11.738Z,2.30
2019-02-04T18:46:40.195Z,2.20
2019-02-04T18:49:08.267Z,2.30
2019-02-04T18:51:36.742Z,1.90
2019-02-04T18:54:05.053Z,2.40
2019-02-04T18:56:33.233Z,2.40
2019-02-04T18:59:01.279Z,2.50
2019-02-04T19:01:29.272Z,2.40
2019-02-04T19:03:57.671Z,2.40
2019-02-04T19:06:26.107Z,2.00
2019-02-04T19:08:54.274Z,2.20
2019-02-04T19:11:22.611Z,2.20
2019-02-04T19:13:50.733Z,2.20
2019-02-04T19:16:18.888Z,2.20
2019-02-04T19:18:46.865Z,1.90
2019-02-04T19:21:14.865Z,2.30
2019-02-04T19:23:43.334Z,2.20
2019-02-04T19:26:11.595Z,2.10
2019-02-04T19:28:39.819Z,2.20
2019-02-04T19:31:21.529Z,2.10
2019-02-04T19:33:49.907Z,2.00
2019-02-04T19:36:18.622Z,2.50
2019-02-04T19:38:46.685Z,1.70
2019-02-04T19:41:15.153Z,2.00
2019-02-04T19:43:43.672Z,2.10
2019-02-04T19:46:11.892Z,2.00
2019-02-04T19:48:40.264Z,2.10
2019-02-04T19:51:08.462Z,1.70
2019-02-04T19:53:37.061Z,2.00
2019-02-04T19:56:05.277Z,2.00
2019-02-04T19:58:33.489Z,2.40
2019-02-04T20:01:01.628Z,2.00
2019-02-04T20:03:29.886Z,2.10
2019-02-04T20:05:57.927Z,2.00
2019-02-04T20:08:26.147Z,2.00
2019-02-04T20:10:54.233Z,2.20
2019-02-04T20:13:22.654Z,2.00
2019-02-04T20:15:50.929Z,2.00
2019-02-04T20:18:18.999Z,2.00
2019-02-04T20:20:48.325Z,2.00
2019-02-04T20:23:16.546Z,2.00
2019-02-04T20:25:45.215Z,2.40
2019-02-04T20:28:13.369Z,1.90
2019-02-04T20:30:45.794Z,1.90
2019-02-04T20:33:11.702Z,1.60
2019-02-04T20:35:40.093Z,1.90
2019-02-04T20:38:08.429Z,1.90
2019-02-04T20:40:36.489Z,1.80
2019-02-04T20:43:06.054Z,1.90
2019-02-04T20:45:34.465Z,2.00
2019-02-04T20:48:03.307Z,2.00
2019-02-04T20:50:34.714Z,1.90
2019-02-04T20:53:02.665Z,1.90
2019-02-04T20:55:30.821Z,2.00
2019-02-04T20:58:00.267Z,2.00
2019-02-04T21:00:29.260Z,1.90
2019-02-04T21:02:57.501Z,1.90
2019-02-04T21:05:28.537Z,2.30
2019-02-04T21:07:56.850Z,1.90
2019-02-04T21:10:26.345Z,1.60
2019-02-04T21:12:54.847Z,1.90
2019-02-04T21:15:23.019Z,1.90
2019-02-04T21:17:51.576Z,1.90
2019-02-04T21:20:22.098Z,1.50
2019-02-04T21:22:50.337Z,1.90
2019-02-04T21:25:18.599Z,1.90
2019-02-04T21:27:46.697Z,1.70
2019-02-04T21:30:20.891Z,1.90
2019-02-04T21:32:49.127Z,1.90
2019-02-04T21:35:17.239Z,1.90
2019-02-04T21:37:45.518Z,1.80
2019-02-04T21:40:14.389Z,2.00
2019-02-04T21:42:42.757Z,1.80
2019-02-04T21:45:13.797Z,1.70
2019-02-04T21:47:42.814Z,1.80
2019-02-04T21:50:16.550Z,1.80
2019-02-04T21:52:44.901Z,1.80
2019-02-04T21:55:13.324Z,1.80
2019-02-04T21:57:41.790Z,1.70
2019-02-04T22:00:14.142Z,1.90
2019-02-04T22:02:42.391Z,1.60
2019-02-04T22:05:13.179Z,1.10
2019-02-04T22:07:41.234Z,1.60
2019-02-04T22:10:19.703Z,1.70
2019-02-04T22:12:47.948Z,1.60
2019-02-04T22:15:16.197Z,1.60
2019-02-04T22:17:44.316Z,1.60
2019-02-04T22:20:15.127Z,1.70
2019-02-04T22:22:43.120Z,1.30
2019-02-04T22:25:19.388Z,1.60
2019-02-04T22:27:41.064Z,1.70
2019-02-04T22:30:16.060Z,1.60
2019-02-04T22:32:45.153Z,1.70
2019-02-04T22:35:13.300Z,1.70
2019-02-04T22:37:41.718Z,1.30
2019-02-04T22:40:15.129Z,1.20
2019-02-04T22:42:43.216Z,1.40
2019-02-04T22:45:11.468Z,1.60
2019-02-04T22:47:41.165Z,1.60
2019-02-04T22:50:24.681Z,1.20
2019-02-04T22:52:54.286Z,2.00
2019-02-04T22:55:31.585Z,1.50
2019-02-04T22:57:53.226Z,1.10
2019-02-04T23:01:39.425Z,1.60
2019-02-04T23:04:08.275Z,1.50
2019-02-04T23:06:36.536Z,1.40
2019-02-04T23:09:07.705Z,1.60
2019-02-04T23:11:36.328Z,1.40
2019-02-04T23:14:06.541Z,1.50
2019-02-04T23:16:34.581Z,1.00
2019-02-04T23:19:02.961Z,1.40
2019-02-04T23:21:31.659Z,1.50
2019-02-04T23:24:00.879Z,1.10
2019-02-04T23:26:29.063Z,1.50
2019-02-04T23:28:57.140Z,0.90
2019-02-04T23:31:25.210Z,1.40
2019-02-04T23:33:53.464Z,1.40
2019-02-04T23:36:21.513Z,1.00
2019-02-04T23:38:49.980Z,1.30
2019-02-04T23:41:18.131Z,0.90
2019-02-04T23:43:46.165Z,1.30
2019-02-04T23:46:14.676Z,1.30
2019-02-04T23:48:42.838Z,0.90
2019-02-04T23:51:10.891Z,1.20
2019-02-04T23:53:38.990Z,1.20
2019-02-04T23:56:07.135Z,1.20
2019-02-04T23:58:36.338Z,1.20
